sensor_id;sensor_type;location;lat;lon;timestamp;noise_LAeq;noise_LA_min;noise_LA_max;noise_LA01;noise_LA95
69668;Laerm;66534;52.370;4.832;2024-01-16T00:00:12;42.19;38.49;50.72;;
69668;Laerm;66534;52.370;4.832;2024-01-16T00:00:42;44.42;37.07;56.95;;
69668;Laerm;66534;52.370;4.832;2024-01-16T00:01:13;43.72;39.25;49.84;;
69668;Laerm;66534;52.370;4.832;2024-01-16T00:01:44;42.03;38.41;50.86;;
69668;Laerm;66534;52.370;4.832;2024-01-16T00:02:14;43.70;37.94;51.83;;
69668;Laerm;66534;52.370;4.832;2024-01-16T00:02:44;46.15;39.53;53.01;;
69668;Laerm;66534;52.370;4.832;2024-01-16T00:03:15;44.57;40.74;51.04;;
69668;Laerm;66534;52.370;4.832;2024-01-16T00:03:45;45.08;39.15;52.87;;
69668;Laerm;66534;52.370;4.832;2024-01-16T00:04:15;45.45;40.19;54.93;;
69668;Laerm;66534;52.370;4.832;2024-01-16T00:04:46;42.51;37.86;52.55;;
69668;Laerm;66534;52.370;4.832;2024-01-16T00:05:16;44.01;38.22;50.16;;
69668;Laerm;66534;52.370;4.832;2024-01-16T00:05:46;42.98;38.90;49.11;;
69668;Laerm;66534;52.370;4.832;2024-01-16T00:06:17;44.77;39.22;51.04;;
69668;Laerm;66534;52.370;4.832;2024-01-16T00:06:47;42.23;37.31;49.22;;
69668;Laerm;66534;52.370;4.832;2024-01-16T00:07:17;41.95;38.61;50.60;;
69668;Laerm;66534;52.370;4.832;2024-01-16T00:07:47;45.75;39.03;53.12;;
69668;Laerm;66534;52.370;4.832;2024-01-16T00:08:18;44.69;40.31;53.48;;
69668;Laerm;66534;52.370;4.832;2024-01-16T00:08:48;42.52;39.27;47.66;;
69668;Laerm;66534;52.370;4.832;2024-01-16T00:09:18;44.02;37.95;53.31;;
69668;Laerm;66534;52.370;4.832;2024-01-16T00:09:48;39.15;36.56;51.88;;
69668;Laerm;66534;52.370;4.832;2024-01-16T00:10:22;44.48;37.47;52.40;;
69668;Laerm;66534;52.370;4.832;2024-01-16T00:10:52;42.62;35.61;52.33;;
69668;Laerm;66534;52.370;4.832;2024-01-16T00:11:23;42.84;37.51;53.36;;
69668;Laerm;66534;52.370;4.832;2024-01-16T00:11:53;43.82;39.48;50.31;;
69668;Laerm;66534;52.370;4.832;2024-01-16T00:12:23;44.71;40.11;49.12;;
69668;Laerm;66534;52.370;4.832;2024-01-16T00:12:53;41.60;37.24;49.43;;
69668;Laerm;66534;52.370;4.832;2024-01-16T00:13:24;43.95;37.74;50.78;;
69668;Laerm;66534;52.370;4.832;2024-01-16T00:13:54;38.93;36.07;48.11;;
69668;Laerm;66534;52.370;4.832;2024-01-16T00:14:24;43.54;37.01;53.67;;
69668;Laerm;66534;52.370;4.832;2024-01-16T00:14:55;44.70;39.47;52.42;;
69668;Laerm;66534;52.370;4.832;2024-01-16T00:15:25;43.46;37.63;50.39;;
69668;Laerm;66534;52.370;4.832;2024-01-16T00:15:55;39.37;36.55;58.03;;
69668;Laerm;66534;52.370;4.832;2024-01-16T00:16:28;37.61;35.44;46.28;;
69668;Laerm;66534;52.370;4.832;2024-01-16T00:16:59;38.72;36.45;44.88;;
69668;Laerm;66534;52.370;4.832;2024-01-16T00:17:29;40.46;36.55;48.67;;
69668;Laerm;66534;52.370;4.832;2024-01-16T00:17:59;41.09;38.10;51.73;;
69668;Laerm;66534;52.370;4.832;2024-01-16T00:18:29;44.19;39.81;49.35;;
69668;Laerm;66534;52.370;4.832;2024-01-16T00:19:00;42.12;35.93;50.81;;
69668;Laerm;66534;52.370;4.832;2024-01-16T00:19:30;37.07;34.75;42.82;;
69668;Laerm;66534;52.370;4.832;2024-01-16T00:20:00;37.36;34.79;53.63;;
69668;Laerm;66534;52.370;4.832;2024-01-16T00:20:31;36.35;34.61;40.16;;
69668;Laerm;66534;52.370;4.832;2024-01-16T00:21:01;36.70;34.38;43.39;;
69668;Laerm;66534;52.370;4.832;2024-01-16T00:21:38;37.47;34.91;40.81;;
69668;Laerm;66534;52.370;4.832;2024-01-16T00:22:08;39.32;36.11;45.77;;
69668;Laerm;66534;52.370;4.832;2024-01-16T00:22:38;41.35;36.52;52.75;;
69668;Laerm;66534;52.370;4.832;2024-01-16T00:23:08;41.63;37.36;46.60;;
69668;Laerm;66534;52.370;4.832;2024-01-16T00:23:39;42.88;38.06;50.49;;
69668;Laerm;66534;52.370;4.832;2024-01-16T00:24:12;42.66;36.90;47.99;;
69668;Laerm;66534;52.370;4.832;2024-01-16T00:24:44;43.33;36.43;55.02;;
69668;Laerm;66534;52.370;4.832;2024-01-16T00:25:14;39.11;36.35;45.14;;
69668;Laerm;66534;52.370;4.832;2024-01-16T00:25:45;41.35;37.15;53.36;;
69668;Laerm;66534;52.370;4.832;2024-01-16T00:26:21;39.63;36.19;45.27;;
69668;Laerm;66534;52.370;4.832;2024-01-16T00:26:52;38.28;35.85;43.03;;
69668;Laerm;66534;52.370;4.832;2024-01-16T00:27:22;37.56;35.22;40.46;;
69668;Laerm;66534;52.370;4.832;2024-01-16T00:27:54;36.97;34.87;39.04;;
69668;Laerm;66534;52.370;4.832;2024-01-16T00:28:24;36.75;34.51;38.62;;
69668;Laerm;66534;52.370;4.832;2024-01-16T00:28:54;40.01;35.20;49.45;;
69668;Laerm;66534;52.370;4.832;2024-01-16T00:29:24;38.68;35.86;46.58;;
69668;Laerm;66534;52.370;4.832;2024-01-16T00:29:55;38.18;35.79;46.89;;
69668;Laerm;66534;52.370;4.832;2024-01-16T00:30:25;41.53;38.43;47.98;;
69668;Laerm;66534;52.370;4.832;2024-01-16T00:30:55;42.84;38.42;54.53;;
69668;Laerm;66534;52.370;4.832;2024-01-16T00:31:26;38.71;36.06;41.02;;
69668;Laerm;66534;52.370;4.832;2024-01-16T00:31:56;37.70;35.22;41.53;;
69668;Laerm;66534;52.370;4.832;2024-01-16T00:32:26;37.12;35.09;39.29;;
69668;Laerm;66534;52.370;4.832;2024-01-16T00:32:59;42.16;34.83;52.19;;
69668;Laerm;66534;52.370;4.832;2024-01-16T00:33:29;39.20;34.80;46.69;;
69668;Laerm;66534;52.370;4.832;2024-01-16T00:34:00;41.61;36.56;48.44;;
69668;Laerm;66534;52.370;4.832;2024-01-16T00:34:30;37.85;36.01;40.83;;
69668;Laerm;66534;52.370;4.832;2024-01-16T00:35:00;44.89;37.91;51.75;;
69668;Laerm;66534;52.370;4.832;2024-01-16T00:35:31;41.15;36.13;48.20;;
69668;Laerm;66534;52.370;4.832;2024-01-16T00:36:01;37.61;34.84;40.75;;
69668;Laerm;66534;52.370;4.832;2024-01-16T00:36:32;36.45;34.46;43.62;;
69668;Laerm;66534;52.370;4.832;2024-01-16T00:37:02;37.37;35.16;45.95;;
69668;Laerm;66534;52.370;4.832;2024-01-16T00:37:32;41.34;36.17;49.64;;
69668;Laerm;66534;52.370;4.832;2024-01-16T00:38:02;37.74;35.38;41.58;;
69668;Laerm;66534;52.370;4.832;2024-01-16T00:38:33;40.36;35.74;53.25;;
69668;Laerm;66534;52.370;4.832;2024-01-16T00:39:03;40.77;36.36;46.88;;
69668;Laerm;66534;52.370;4.832;2024-01-16T00:39:33;42.03;36.01;59.33;;
69668;Laerm;66534;52.370;4.832;2024-01-16T00:40:04;42.90;33.78;57.55;;
69668;Laerm;66534;52.370;4.832;2024-01-16T00:40:37;36.16;34.01;41.90;;
69668;Laerm;66534;52.370;4.832;2024-01-16T00:41:07;36.50;34.41;39.37;;
69668;Laerm;66534;52.370;4.832;2024-01-16T00:41:37;36.33;34.34;39.68;;
69668;Laerm;66534;52.370;4.832;2024-01-16T00:42:08;37.02;34.47;39.13;;
69668;Laerm;66534;52.370;4.832;2024-01-16T00:42:38;40.88;35.89;47.88;;
69668;Laerm;66534;52.370;4.832;2024-01-16T00:43:08;40.96;35.82;52.63;;
69668;Laerm;66534;52.370;4.832;2024-01-16T00:43:39;38.10;34.66;46.53;;
69668;Laerm;66534;52.370;4.832;2024-01-16T00:44:10;44.17;39.12;49.14;;
69668;Laerm;66534;52.370;4.832;2024-01-16T00:44:40;42.14;36.91;48.27;;
69668;Laerm;66534;52.370;4.832;2024-01-16T00:45:11;39.97;37.06;43.39;;
69668;Laerm;66534;52.370;4.832;2024-01-16T00:45:41;42.37;36.21;49.34;;
69668;Laerm;66534;52.370;4.832;2024-01-16T00:46:11;37.12;34.54;51.36;;
69668;Laerm;66534;52.370;4.832;2024-01-16T00:46:41;37.44;34.42;40.37;;
69668;Laerm;66534;52.370;4.832;2024-01-16T00:47:12;39.78;37.23;44.68;;
69668;Laerm;66534;52.370;4.832;2024-01-16T00:47:42;40.61;36.02;49.45;;
69668;Laerm;66534;52.370;4.832;2024-01-16T00:48:12;43.34;36.59;52.62;;
69668;Laerm;66534;52.370;4.832;2024-01-16T00:48:44;41.72;36.07;49.29;;
69668;Laerm;66534;52.370;4.832;2024-01-16T00:49:14;38.87;36.20;45.34;;
69668;Laerm;66534;52.370;4.832;2024-01-16T00:49:44;38.16;35.20;42.27;;
69668;Laerm;66534;52.370;4.832;2024-01-16T00:50:14;36.57;34.00;38.76;;
69668;Laerm;66534;52.370;4.832;2024-01-16T00:50:45;35.74;33.49;38.79;;
69668;Laerm;66534;52.370;4.832;2024-01-16T00:51:16;37.45;34.02;47.93;;
69668;Laerm;66534;52.370;4.832;2024-01-16T00:51:46;40.45;36.92;52.21;;
69668;Laerm;66534;52.370;4.832;2024-01-16T00:52:16;44.06;36.59;56.26;;
69668;Laerm;66534;52.370;4.832;2024-01-16T00:52:47;42.68;37.76;51.69;;
69668;Laerm;66534;52.370;4.832;2024-01-16T00:53:17;46.24;39.92;54.06;;
69668;Laerm;66534;52.370;4.832;2024-01-16T00:53:47;42.77;38.25;57.97;;
69668;Laerm;66534;52.370;4.832;2024-01-16T00:54:17;50.21;39.57;64.30;;
69668;Laerm;66534;52.370;4.832;2024-01-16T00:54:48;46.53;36.41;61.78;;
69668;Laerm;66534;52.370;4.832;2024-01-16T00:55:18;39.72;35.26;63.25;;
69668;Laerm;66534;52.370;4.832;2024-01-16T00:55:48;43.60;37.59;63.43;;
69668;Laerm;66534;52.370;4.832;2024-01-16T00:56:18;47.50;41.94;63.30;;
69668;Laerm;66534;52.370;4.832;2024-01-16T00:56:54;44.00;39.66;52.94;;
69668;Laerm;66534;52.370;4.832;2024-01-16T00:57:29;39.38;35.64;48.68;;
69668;Laerm;66534;52.370;4.832;2024-01-16T00:57:59;42.29;37.03;62.34;;
69668;Laerm;66534;52.370;4.832;2024-01-16T00:58:30;43.35;39.69;59.23;;
69668;Laerm;66534;52.370;4.832;2024-01-16T00:59:01;47.24;40.43;65.44;;
69668;Laerm;66534;52.370;4.832;2024-01-16T00:59:31;45.01;40.79;57.89;;
69668;Laerm;66534;52.370;4.832;2024-01-16T01:00:02;44.87;40.04;53.64;;
69668;Laerm;66534;52.370;4.832;2024-01-16T01:00:34;44.56;38.17;59.87;;
69668;Laerm;66534;52.370;4.832;2024-01-16T01:01:05;47.61;37.81;64.66;;
69668;Laerm;66534;52.370;4.832;2024-01-16T01:01:37;49.07;37.77;73.78;;
69668;Laerm;66534;52.370;4.832;2024-01-16T01:02:07;45.23;38.09;63.68;;
69668;Laerm;66534;52.370;4.832;2024-01-16T01:02:39;46.53;41.77;59.23;;
69668;Laerm;66534;52.370;4.832;2024-01-16T01:03:10;48.85;40.84;69.83;;
69668;Laerm;66534;52.370;4.832;2024-01-16T01:03:40;48.61;43.39;63.09;;
69668;Laerm;66534;52.370;4.832;2024-01-16T01:04:12;49.96;38.87;76.29;;
69668;Laerm;66534;52.370;4.832;2024-01-16T01:04:42;49.23;38.79;74.25;;
69668;Laerm;66534;52.370;4.832;2024-01-16T01:05:13;44.45;39.00;65.49;;
69668;Laerm;66534;52.370;4.832;2024-01-16T01:05:43;50.72;39.32;77.75;;
69668;Laerm;66534;52.370;4.832;2024-01-16T01:06:13;52.74;39.12;80.47;;
69668;Laerm;66534;52.370;4.832;2024-01-16T01:06:43;48.80;39.70;71.41;;
69668;Laerm;66534;52.370;4.832;2024-01-16T01:07:16;40.74;36.40;56.88;;
69668;Laerm;66534;52.370;4.832;2024-01-16T01:07:47;50.63;36.38;77.94;;
69668;Laerm;66534;52.370;4.832;2024-01-16T01:08:17;52.75;37.34;78.28;;
69668;Laerm;66534;52.370;4.832;2024-01-16T01:08:47;46.07;38.49;69.50;;
69668;Laerm;66534;52.370;4.832;2024-01-16T01:09:17;45.98;38.08;71.07;;
69668;Laerm;66534;52.370;4.832;2024-01-16T01:09:48;47.90;37.27;76.19;;
69668;Laerm;66534;52.370;4.832;2024-01-16T01:10:18;44.38;37.10;57.41;;
69668;Laerm;66534;52.370;4.832;2024-01-16T01:10:48;40.10;36.30;56.62;;
69668;Laerm;66534;52.370;4.832;2024-01-16T01:11:18;45.53;35.62;71.12;;
69668;Laerm;66534;52.370;4.832;2024-01-16T01:11:49;41.73;36.62;60.12;;
69668;Laerm;66534;52.370;4.832;2024-01-16T01:12:19;45.29;35.64;70.03;;
69668;Laerm;66534;52.370;4.832;2024-01-16T01:12:51;51.73;34.87;79.43;;
69668;Laerm;66534;52.370;4.832;2024-01-16T01:13:23;52.82;36.66;74.24;;
69668;Laerm;66534;52.370;4.832;2024-01-16T01:13:55;45.06;35.49;71.78;;
69668;Laerm;66534;52.370;4.832;2024-01-16T01:14:25;44.90;37.50;70.32;;
69668;Laerm;66534;52.370;4.832;2024-01-16T01:14:58;41.56;36.51;58.99;;
69668;Laerm;66534;52.370;4.832;2024-01-16T01:15:29;40.46;35.95;57.53;;
69668;Laerm;66534;52.370;4.832;2024-01-16T01:15:59;39.75;35.49;55.76;;
69668;Laerm;66534;52.370;4.832;2024-01-16T01:16:31;37.52;35.00;47.96;;
69668;Laerm;66534;52.370;4.832;2024-01-16T01:17:01;37.32;34.10;52.41;;
69668;Laerm;66534;52.370;4.832;2024-01-16T01:17:31;39.14;34.60;55.96;;
69668;Laerm;66534;52.370;4.832;2024-01-16T01:18:02;42.60;35.47;53.26;;
69668;Laerm;66534;52.370;4.832;2024-01-16T01:18:32;38.45;34.60;47.42;;
69668;Laerm;66534;52.370;4.832;2024-01-16T01:19:02;37.28;34.63;54.18;;
69668;Laerm;66534;52.370;4.832;2024-01-16T01:19:33;36.20;33.93;42.54;;
69668;Laerm;66534;52.370;4.832;2024-01-16T01:20:03;41.15;34.83;68.06;;
69668;Laerm;66534;52.370;4.832;2024-01-16T01:20:33;38.13;35.16;53.97;;
69668;Laerm;66534;52.370;4.832;2024-01-16T01:21:04;41.60;37.09;48.20;;
69668;Laerm;66534;52.370;4.832;2024-01-16T01:21:35;38.58;35.93;51.15;;
69668;Laerm;66534;52.370;4.832;2024-01-16T01:22:05;42.33;36.86;54.72;;
69668;Laerm;66534;52.370;4.832;2024-01-16T01:22:36;45.23;37.80;60.53;;
69668;Laerm;66534;52.370;4.832;2024-01-16T01:23:07;40.13;35.61;55.32;;
69668;Laerm;66534;52.370;4.832;2024-01-16T01:23:37;38.60;35.21;51.26;;
69668;Laerm;66534;52.370;4.832;2024-01-16T01:24:08;41.87;35.57;52.75;;
69668;Laerm;66534;52.370;4.832;2024-01-16T01:24:39;38.33;34.51;62.18;;
69668;Laerm;66534;52.370;4.832;2024-01-16T01:25:09;37.45;35.05;50.74;;
69668;Laerm;66534;52.370;4.832;2024-01-16T01:25:40;37.51;35.25;52.37;;
69668;Laerm;66534;52.370;4.832;2024-01-16T01:26:11;42.38;35.54;48.39;;
69668;Laerm;66534;52.370;4.832;2024-01-16T01:26:43;39.04;35.87;51.68;;
69668;Laerm;66534;52.370;4.832;2024-01-16T01:27:14;38.29;35.52;45.01;;
69668;Laerm;66534;52.370;4.832;2024-01-16T01:27:44;38.32;36.06;50.23;;
69668;Laerm;66534;52.370;4.832;2024-01-16T01:28:14;43.76;37.78;51.56;;
69668;Laerm;66534;52.370;4.832;2024-01-16T01:28:45;38.65;36.51;49.83;;
69668;Laerm;66534;52.370;4.832;2024-01-16T01:29:15;38.33;35.95;41.56;;
69668;Laerm;66534;52.370;4.832;2024-01-16T01:29:46;38.78;35.77;52.03;;
69668;Laerm;66534;52.370;4.832;2024-01-16T01:30:16;39.31;36.07;49.22;;
69668;Laerm;66534;52.370;4.832;2024-01-16T01:30:47;38.21;35.62;46.47;;
69668;Laerm;66534;52.370;4.832;2024-01-16T01:31:17;39.93;36.37;44.79;;
69668;Laerm;66534;52.370;4.832;2024-01-16T01:31:48;41.45;35.41;49.84;;
69668;Laerm;66534;52.370;4.832;2024-01-16T01:32:19;38.88;35.29;53.55;;
69668;Laerm;66534;52.370;4.832;2024-01-16T01:32:49;37.92;35.40;47.42;;
69668;Laerm;66534;52.370;4.832;2024-01-16T01:33:19;37.39;34.49;41.83;;
69668;Laerm;66534;52.370;4.832;2024-01-16T01:33:50;42.50;34.56;70.26;;
69668;Laerm;66534;52.370;4.832;2024-01-16T01:34:20;37.17;34.50;41.18;;
69668;Laerm;66534;52.370;4.832;2024-01-16T01:34:50;41.39;35.40;51.72;;
69668;Laerm;66534;52.370;4.832;2024-01-16T01:35:20;38.14;35.02;47.70;;
69668;Laerm;66534;52.370;4.832;2024-01-16T01:35:51;44.34;35.22;52.27;;
69668;Laerm;66534;52.370;4.832;2024-01-16T01:36:21;37.07;34.30;52.49;;
69668;Laerm;66534;52.370;4.832;2024-01-16T01:36:51;36.56;33.34;53.36;;
69668;Laerm;66534;52.370;4.832;2024-01-16T01:37:22;36.14;33.94;51.57;;
69668;Laerm;66534;52.370;4.832;2024-01-16T01:37:52;39.65;34.43;49.17;;
69668;Laerm;66534;52.370;4.832;2024-01-16T01:38:22;40.43;35.07;54.65;;
69668;Laerm;66534;52.370;4.832;2024-01-16T01:38:55;37.06;35.10;42.38;;
69668;Laerm;66534;52.370;4.832;2024-01-16T01:39:25;38.86;35.27;53.07;;
69668;Laerm;66534;52.370;4.832;2024-01-16T01:39:56;42.18;36.01;50.73;;
69668;Laerm;66534;52.370;4.832;2024-01-16T01:40:26;37.68;34.14;49.12;;
69668;Laerm;66534;52.370;4.832;2024-01-16T01:40:56;36.14;33.72;50.85;;
69668;Laerm;66534;52.370;4.832;2024-01-16T01:41:27;38.28;36.08;41.62;;
69668;Laerm;66534;52.370;4.832;2024-01-16T01:41:57;37.32;35.08;41.33;;
69668;Laerm;66534;52.370;4.832;2024-01-16T01:42:28;37.23;35.32;51.28;;
69668;Laerm;66534;52.370;4.832;2024-01-16T01:42:58;42.52;36.18;52.06;;
69668;Laerm;66534;52.370;4.832;2024-01-16T01:43:46;39.16;34.34;52.11;;
69668;Laerm;66534;52.370;4.832;2024-01-16T01:44:16;39.81;34.09;49.40;;
69668;Laerm;66534;52.370;4.832;2024-01-16T01:44:47;36.32;33.25;52.58;;
69668;Laerm;66534;52.370;4.832;2024-01-16T01:45:17;36.89;33.81;45.42;;
69668;Laerm;66534;52.370;4.832;2024-01-16T01:45:51;40.06;34.87;51.60;;
69668;Laerm;66534;52.370;4.832;2024-01-16T01:46:26;40.19;35.03;60.73;;
69668;Laerm;66534;52.370;4.832;2024-01-16T01:46:57;41.94;37.04;52.97;;
69668;Laerm;66534;52.370;4.832;2024-01-16T01:47:29;42.51;36.31;52.06;;
69668;Laerm;66534;52.370;4.832;2024-01-16T01:47:59;37.39;34.57;52.43;;
69668;Laerm;66534;52.370;4.832;2024-01-16T01:48:30;48.23;35.41;76.49;;
69668;Laerm;66534;52.370;4.832;2024-01-16T01:49:02;39.98;35.58;51.38;;
69668;Laerm;66534;52.370;4.832;2024-01-16T01:49:32;38.04;35.01;57.02;;
69668;Laerm;66534;52.370;4.832;2024-01-16T01:50:03;39.99;34.85;51.23;;
69668;Laerm;66534;52.370;4.832;2024-01-16T01:50:33;40.28;36.84;55.92;;
69668;Laerm;66534;52.370;4.832;2024-01-16T01:51:04;45.02;36.00;72.01;;
69668;Laerm;66534;52.370;4.832;2024-01-16T01:51:34;39.05;34.76;59.28;;
69668;Laerm;66534;52.370;4.832;2024-01-16T01:52:04;38.19;33.73;59.25;;
69668;Laerm;66534;52.370;4.832;2024-01-16T01:52:38;48.00;33.44;76.99;;
69668;Laerm;66534;52.370;4.832;2024-01-16T01:53:09;39.65;33.46;60.43;;
69668;Laerm;66534;52.370;4.832;2024-01-16T01:53:41;41.11;36.57;57.98;;
69668;Laerm;66534;52.370;4.832;2024-01-16T01:54:12;41.43;35.14;56.86;;
69668;Laerm;66534;52.370;4.832;2024-01-16T01:54:43;45.18;33.40;73.32;;
69668;Laerm;66534;52.370;4.832;2024-01-16T01:55:13;39.99;34.76;53.40;;
69668;Laerm;66534;52.370;4.832;2024-01-16T01:55:44;47.47;33.49;75.28;;
69668;Laerm;66534;52.370;4.832;2024-01-16T01:56:14;36.02;33.31;53.50;;
69668;Laerm;66534;52.370;4.832;2024-01-16T01:56:46;37.67;34.99;46.92;;
69668;Laerm;66534;52.370;4.832;2024-01-16T01:57:17;39.93;34.68;49.19;;
69668;Laerm;66534;52.370;4.832;2024-01-16T01:57:48;37.40;34.35;50.53;;
69668;Laerm;66534;52.370;4.832;2024-01-16T01:58:19;38.73;35.26;50.80;;
69668;Laerm;66534;52.370;4.832;2024-01-16T01:58:49;48.24;37.66;57.29;;
69668;Laerm;66534;52.370;4.832;2024-01-16T01:59:22;47.05;35.05;72.53;;
69668;Laerm;66534;52.370;4.832;2024-01-16T01:59:53;38.47;33.86;55.69;;
69668;Laerm;66534;52.370;4.832;2024-01-16T02:00:23;37.42;33.73;53.79;;
69668;Laerm;66534;52.370;4.832;2024-01-16T02:00:53;36.26;33.57;50.15;;
69668;Laerm;66534;52.370;4.832;2024-01-16T02:01:24;38.48;35.08;51.34;;
69668;Laerm;66534;52.370;4.832;2024-01-16T02:01:55;45.53;35.72;71.40;;
69668;Laerm;66534;52.370;4.832;2024-01-16T02:02:26;35.74;32.98;42.17;;
69668;Laerm;66534;52.370;4.832;2024-01-16T02:02:56;37.08;33.34;48.65;;
69668;Laerm;66534;52.370;4.832;2024-01-16T02:03:27;43.22;33.57;68.81;;
69668;Laerm;66534;52.370;4.832;2024-01-16T02:03:58;42.84;33.42;71.25;;
69668;Laerm;66534;52.370;4.832;2024-01-16T02:04:31;41.53;32.87;69.76;;
69668;Laerm;66534;52.370;4.832;2024-01-16T02:05:02;43.65;33.68;65.10;;
69668;Laerm;66534;52.370;4.832;2024-01-16T02:05:33;41.51;37.11;56.69;;
69668;Laerm;66534;52.370;4.832;2024-01-16T02:06:04;44.98;40.01;59.29;;
69668;Laerm;66534;52.370;4.832;2024-01-16T02:06:34;45.23;40.24;60.37;;
69668;Laerm;66534;52.370;4.832;2024-01-16T02:07:04;45.90;39.71;58.72;;
69668;Laerm;66534;52.370;4.832;2024-01-16T02:07:35;55.02;45.10;69.29;;
69668;Laerm;66534;52.370;4.832;2024-01-16T02:08:05;54.05;47.23;76.80;;
69668;Laerm;66534;52.370;4.832;2024-01-16T02:08:36;57.86;47.58;77.47;;
69668;Laerm;66534;52.370;4.832;2024-01-16T02:09:06;62.04;54.89;78.05;;
69668;Laerm;66534;52.370;4.832;2024-01-16T02:09:37;57.37;50.54;70.55;;
69668;Laerm;66534;52.370;4.832;2024-01-16T02:10:08;54.92;47.90;69.00;;
69668;Laerm;66534;52.370;4.832;2024-01-16T02:10:38;55.69;49.91;66.81;;
69668;Laerm;66534;52.370;4.832;2024-01-16T02:11:09;54.05;46.40;67.25;;
69668;Laerm;66534;52.370;4.832;2024-01-16T02:11:40;48.33;40.86;62.76;;
69668;Laerm;66534;52.370;4.832;2024-01-16T02:12:11;43.90;38.61;57.61;;
69668;Laerm;66534;52.370;4.832;2024-01-16T02:12:41;41.31;36.63;54.56;;
69668;Laerm;66534;52.370;4.832;2024-01-16T02:13:11;41.45;36.31;62.03;;
69668;Laerm;66534;52.370;4.832;2024-01-16T02:13:42;38.68;35.33;57.87;;
69668;Laerm;66534;52.370;4.832;2024-01-16T02:14:12;48.12;35.86;76.79;;
69668;Laerm;66534;52.370;4.832;2024-01-16T02:14:42;39.14;34.93;50.97;;
69668;Laerm;66534;52.370;4.832;2024-01-16T02:15:13;42.72;35.10;67.10;;
69668;Laerm;66534;52.370;4.832;2024-01-16T02:15:43;37.99;34.41;57.62;;
69668;Laerm;66534;52.370;4.832;2024-01-16T02:16:19;36.77;34.32;53.81;;
69668;Laerm;66534;52.370;4.832;2024-01-16T02:16:50;36.57;33.98;50.76;;
69668;Laerm;66534;52.370;4.832;2024-01-16T02:17:21;37.49;33.14;59.71;;
69668;Laerm;66534;52.370;4.832;2024-01-16T02:17:51;37.57;33.70;57.98;;
69668;Laerm;66534;52.370;4.832;2024-01-16T02:18:21;39.66;34.76;62.31;;
69668;Laerm;66534;52.370;4.832;2024-01-16T02:18:52;39.67;34.12;60.93;;
69668;Laerm;66534;52.370;4.832;2024-01-16T02:19:22;42.89;34.04;71.14;;
69668;Laerm;66534;52.370;4.832;2024-01-16T02:19:54;40.42;33.65;67.81;;
69668;Laerm;66534;52.370;4.832;2024-01-16T02:20:25;36.95;33.56;54.72;;
69668;Laerm;66534;52.370;4.832;2024-01-16T02:20:57;38.06;34.50;52.27;;
69668;Laerm;66534;52.370;4.832;2024-01-16T02:21:39;37.51;34.43;52.16;;
69668;Laerm;66534;52.370;4.832;2024-01-16T02:22:10;40.50;34.52;62.71;;
69668;Laerm;66534;52.370;4.832;2024-01-16T02:22:44;40.73;36.12;56.83;;
69668;Laerm;66534;52.370;4.832;2024-01-16T02:23:47;39.25;35.10;59.34;;
69668;Laerm;66534;52.370;4.832;2024-01-16T02:24:18;38.80;35.19;56.83;;
69668;Laerm;66534;52.370;4.832;2024-01-16T02:24:48;37.48;34.33;53.15;;
69668;Laerm;66534;52.370;4.832;2024-01-16T02:25:19;37.86;34.88;52.69;;
69668;Laerm;66534;52.370;4.832;2024-01-16T02:25:49;44.06;34.92;62.46;;
69668;Laerm;66534;52.370;4.832;2024-01-16T02:26:20;36.61;33.52;51.80;;
69668;Laerm;66534;52.370;4.832;2024-01-16T02:26:53;37.32;33.98;55.22;;
69668;Laerm;66534;52.370;4.832;2024-01-16T02:27:23;36.52;34.09;52.92;;
69668;Laerm;66534;52.370;4.832;2024-01-16T02:27:54;45.98;34.05;74.62;;
69668;Laerm;66534;52.370;4.832;2024-01-16T02:28:24;36.89;33.23;57.03;;
69668;Laerm;66534;52.370;4.832;2024-01-16T02:28:54;36.07;33.76;47.61;;
69668;Laerm;66534;52.370;4.832;2024-01-16T02:29:24;37.21;33.86;56.30;;
69668;Laerm;66534;52.370;4.832;2024-01-16T02:29:55;35.39;33.40;42.46;;
69668;Laerm;66534;52.370;4.832;2024-01-16T02:30:25;39.29;33.68;64.53;;
69668;Laerm;66534;52.370;4.832;2024-01-16T02:30:55;37.75;34.78;53.69;;
69668;Laerm;66534;52.370;4.832;2024-01-16T02:31:25;38.90;34.81;56.11;;
69668;Laerm;66534;52.370;4.832;2024-01-16T02:31:56;38.67;34.97;56.32;;
69668;Laerm;66534;52.370;4.832;2024-01-16T02:32:26;37.36;34.62;50.50;;
69668;Laerm;66534;52.370;4.832;2024-01-16T02:32:56;38.88;35.00;51.86;;
69668;Laerm;66534;52.370;4.832;2024-01-16T02:33:26;41.74;34.77;67.11;;
69668;Laerm;66534;52.370;4.832;2024-01-16T02:33:57;38.42;34.45;60.02;;
69668;Laerm;66534;52.370;4.832;2024-01-16T02:34:28;38.11;33.99;59.12;;
69668;Laerm;66534;52.370;4.832;2024-01-16T02:34:58;36.59;33.38;54.81;;
69668;Laerm;66534;52.370;4.832;2024-01-16T02:35:29;45.38;34.05;74.13;;
69668;Laerm;66534;52.370;4.832;2024-01-16T02:35:59;40.46;34.89;60.66;;
69668;Laerm;66534;52.370;4.832;2024-01-16T02:36:29;38.62;34.59;53.36;;
69668;Laerm;66534;52.370;4.832;2024-01-16T02:37:00;38.91;34.92;57.57;;
69668;Laerm;66534;52.370;4.832;2024-01-16T02:37:30;39.56;34.14;59.40;;
69668;Laerm;66534;52.370;4.832;2024-01-16T02:38:01;37.09;34.14;54.60;;
69668;Laerm;66534;52.370;4.832;2024-01-16T02:38:31;36.54;33.48;49.58;;
69668;Laerm;66534;52.370;4.832;2024-01-16T02:39:01;41.19;33.62;68.65;;
69668;Laerm;66534;52.370;4.832;2024-01-16T02:39:31;37.22;33.85;54.70;;
69668;Laerm;66534;52.370;4.832;2024-01-16T02:40:02;37.25;33.94;57.89;;
69668;Laerm;66534;52.370;4.832;2024-01-16T02:40:36;41.57;35.24;65.44;;
69668;Laerm;66534;52.370;4.832;2024-01-16T02:41:06;37.13;34.66;50.72;;
69668;Laerm;66534;52.370;4.832;2024-01-16T02:41:37;38.71;34.48;61.53;;
69668;Laerm;66534;52.370;4.832;2024-01-16T02:42:07;36.82;34.31;52.94;;
69668;Laerm;66534;52.370;4.832;2024-01-16T02:42:37;37.36;33.62;57.69;;
69668;Laerm;66534;52.370;4.832;2024-01-16T02:43:08;35.95;33.58;46.17;;
69668;Laerm;66534;52.370;4.832;2024-01-16T02:43:38;37.62;33.97;61.01;;
69668;Laerm;66534;52.370;4.832;2024-01-16T02:44:08;40.19;34.13;66.66;;
69668;Laerm;66534;52.370;4.832;2024-01-16T02:44:39;39.88;34.83;54.18;;
69668;Laerm;66534;52.370;4.832;2024-01-16T02:45:10;36.80;34.15;50.33;;
69668;Laerm;66534;52.370;4.832;2024-01-16T02:45:40;37.69;34.86;47.12;;
69668;Laerm;66534;52.370;4.832;2024-01-16T02:46:10;38.04;34.78;51.91;;
69668;Laerm;66534;52.370;4.832;2024-01-16T02:46:41;38.83;35.04;47.77;;
69668;Laerm;66534;52.370;4.832;2024-01-16T02:47:11;37.48;34.98;48.99;;
69668;Laerm;66534;52.370;4.832;2024-01-16T02:47:41;37.46;34.78;50.13;;
69668;Laerm;66534;52.370;4.832;2024-01-16T02:48:12;38.68;35.12;52.00;;
69668;Laerm;66534;52.370;4.832;2024-01-16T02:48:42;39.74;36.86;50.67;;
69668;Laerm;66534;52.370;4.832;2024-01-16T02:49:12;38.75;35.48;57.61;;
69668;Laerm;66534;52.370;4.832;2024-01-16T02:49:43;38.67;35.56;45.55;;
69668;Laerm;66534;52.370;4.832;2024-01-16T02:50:13;41.56;35.65;50.63;;
69668;Laerm;66534;52.370;4.832;2024-01-16T02:50:46;42.41;37.26;60.13;;
69668;Laerm;66534;52.370;4.832;2024-01-16T02:51:16;37.92;35.11;52.42;;
69668;Laerm;66534;52.370;4.832;2024-01-16T02:51:47;42.05;35.14;67.38;;
69668;Laerm;66534;52.370;4.832;2024-01-16T02:52:17;38.21;34.91;53.39;;
69668;Laerm;66534;52.370;4.832;2024-01-16T02:52:47;37.85;35.10;52.11;;